Time;durP1;ratioP1;P1;durP2;ratioP2;P2;SDS_P1;SDS_P2;PMS_P1;PMS_P2;Temp;Humidity;BMP_temperature;BMP_pressure;BME280_temperature;BME280_humidity;BME280_pressure;Samples;Min_cycle;Max_cycle;Signal;HPM_P1;HPM_P2
2023/10/22 00:02:07;;;;;;;71.95;5.60;;;;;;;22.28;46.68;95081.72;5014305;28;20230;-70
2023/10/22 00:04:33;;;;;;;39.83;4.22;;;;;;;22.26;47.62;95087.31;4963924;28;20604;-70
2023/10/22 00:06:58;;;;;;;13.63;3.40;;;;;;;22.17;48.88;95085.44;4956443;28;20234;-71
2023/10/22 00:09:24;;;;;;;11.23;3.30;;;;;;;21.97;49.80;95073.72;4997039;28;20232;-70
2023/10/22 00:11:49;;;;;;;14.55;3.58;;;;;;;21.93;50.53;95074.50;4985380;28;20246;-69
2023/10/22 00:14:15;;;;;;;15.47;3.60;;;;;;;21.93;50.97;95069.19;4980513;28;20266;-69
2023/10/22 00:16:40;;;;;;;11.73;3.50;;;;;;;21.79;51.67;95062.75;4971405;28;20255;-70
2023/10/22 00:19:06;;;;;;;12.57;3.70;;;;;;;21.78;51.56;95061.94;4982515;28;20600;-70
2023/10/22 00:21:32;;;;;;;17.33;3.67;;;;;;;21.75;51.67;95057.16;5010576;28;20254;-68
2023/10/22 00:23:58;;;;;;;15.20;3.43;;;;;;;21.74;51.11;95060.06;4990043;28;20235;-71
2023/10/22 00:26:23;;;;;;;16.47;3.70;;;;;;;21.69;50.89;95060.88;5019337;28;20262;-71
2023/10/22 00:28:49;;;;;;;14.87;3.30;;;;;;;21.72;50.42;95063.00;5013115;28;20224;-70
2023/10/22 00:31:14;;;;;;;13.77;3.20;;;;;;;21.75;49.64;95057.16;4980636;28;20258;-70
2023/10/22 00:33:40;;;;;;;17.53;3.23;;;;;;;21.80;49.30;95056.38;4964049;28;20331;-70
2023/10/22 00:36:05;;;;;;;15.35;3.30;;;;;;;21.80;49.66;95054.50;4988073;28;20707;-70
2023/10/22 00:38:31;;;;;;;13.47;3.33;;;;;;;21.78;49.69;95063.84;4970257;28;20339;-70
2023/10/22 00:40:56;;;;;;;14.98;3.28;;;;;;;21.72;50.47;95064.88;4978398;28;20231;-69
2023/10/22 00:43:22;;;;;;;15.47;3.43;;;;;;;21.57;50.76;95065.66;4981883;28;20311;-69
2023/10/22 00:45:47;;;;;;;10.93;3.20;;;;;;;21.47;51.28;95061.09;4999833;28;20264;-69
2023/10/22 00:48:13;;;;;;;12.83;3.20;;;;;;;21.41;51.85;95058.69;4979308;28;20266;-70
2023/10/22 00:50:41;;;;;;;15.93;3.43;;;;;;;21.35;51.82;95057.88;4982460;28;20230;-71
2023/10/22 00:53:10;;;;;;;11.30;3.00;;;;;;;21.36;52.14;95048.84;5004890;28;20235;-70
2023/10/22 00:55:37;;;;;;;14.50;3.20;;;;;;;21.27;52.75;95041.63;4958889;28;20718;-70
2023/10/22 00:58:03;;;;;;;15.97;3.10;;;;;;;21.32;52.52;95039.78;4995101;28;20266;-69
2023/10/22 01:00:28;;;;;;;13.60;3.23;;;;;;;21.29;53.18;95028.84;5001619;28;20345;-69
2023/10/22 01:02:54;;;;;;;13.80;3.30;;;;;;;21.20;53.01;95025.91;4972631;28;20235;-70
2023/10/22 01:05:19;;;;;;;10.47;3.20;;;;;;;21.09;54.05;95020.81;4982188;28;20368;-69
2023/10/22 01:07:46;;;;;;;11.63;3.40;;;;;;;21.08;54.23;95017.34;4947478;28;20227;-69
2023/10/22 01:10:12;;;;;;;13.10;3.40;;;;;;;21.07;53.65;95025.59;4964189;28;20243;-71
2023/10/22 01:12:38;;;;;;;13.83;3.37;;;;;;;20.99;54.39;95026.88;4970970;28;20254;-71
2023/10/22 01:15:05;;;;;;;14.13;3.33;;;;;;;20.95;54.61;95028.44;4956634;28;20283;-70
2023/10/22 01:17:30;;;;;;;11.73;3.63;;;;;;;20.91;54.48;95030.03;4984211;28;20265;-69
2023/10/22 01:19:56;;;;;;;11.10;3.40;;;;;;;20.92;54.39;95022.88;4947954;28;20703;-70
2023/10/22 01:22:21;;;;;;;12.53;3.57;;;;;;;20.89;55.14;95021.53;5013321;28;20236;-70
2023/10/22 01:24:47;;;;;;;16.63;3.57;;;;;;;20.84;55.11;95018.84;4982585;28;20232;-71
2023/10/22 01:27:12;;;;;;;13.40;3.67;;;;;;;20.84;55.66;95018.84;4962450;28;20231;-70
2023/10/22 01:29:38;;;;;;;10.07;3.30;;;;;;;20.81;55.39;95027.34;4984162;28;20227;-70
2023/10/22 01:32:04;;;;;;;13.43;3.60;;;;;;;20.80;55.28;95031.06;4965123;28;20891;-70
2023/10/22 01:34:30;;;;;;;18.40;3.60;;;;;;;20.79;55.40;95024.94;4968359;28;20258;-70
2023/10/22 01:36:55;;;;;;;15.73;4.00;;;;;;;20.82;53.96;95028.94;4987468;28;20274;-69
2023/10/22 01:39:21;;;;;;;15.37;3.43;;;;;;;20.91;53.96;95013.25;4984633;28;20317;-70
2023/10/22 01:41:46;;;;;;;16.03;3.53;;;;;;;21.01;52.65;95023.94;4987531;28;20232;-70
2023/10/22 01:44:12;;;;;;;12.10;3.23;;;;;;;21.15;51.48;95025.09;5004089;28;20227;-79
2023/10/22 01:46:37;;;;;;;13.50;3.33;;;;;;;21.12;51.43;95030.94;4987474;28;20231;-81
2023/10/22 01:49:03;;;;;;;19.00;3.37;;;;;;;21.12;51.69;95025.59;4998148;28;20239;-82
2023/10/22 01:51:28;;;;;;;12.23;3.50;;;;;;;21.11;51.82;95027.47;4979897;28;20261;-81
2023/10/22 01:53:54;;;;;;;15.13;3.63;;;;;;;21.05;52.45;95022.38;4985443;28;20224;-81
2023/10/22 01:56:20;;;;;;;15.37;3.57;;;;;;;21.04;52.82;95020.78;4975171;28;20230;-82
2023/10/22 01:58:45;;;;;;;16.97;3.13;;;;;;;21.04;52.31;95018.88;5008746;28;20216;-82
2023/10/22 02:01:11;;;;;;;16.03;3.40;;;;;;;21.11;51.30;95024.03;4980974;28;20223;-82
2023/10/22 02:03:37;;;;;;;20.87;3.80;;;;;;;21.17;51.44;95030.94;4988911;28;20235;-81
2023/10/22 02:06:11;;;;;;;11.77;3.23;;;;;;;21.14;51.13;95026.13;4981430;28;20245;-82
2023/10/22 02:08:36;;;;;;;16.70;3.13;;;;;;;21.19;49.92;95010.19;4988825;28;20635;-82
2023/10/22 02:11:02;;;;;;;15.90;3.27;;;;;;;21.28;49.37;95012.06;4965769;28;20717;-81
2023/10/22 02:13:27;;;;;;;14.93;3.50;;;;;;;21.33;48.99;95012.06;4943370;28;20243;-80
2023/10/22 02:15:53;;;;;;;18.73;3.47;;;;;;;21.26;49.68;95008.88;4977612;28;20784;-80
2023/10/22 02:18:18;;;;;;;15.43;3.03;;;;;;;21.29;49.34;95015.53;4975333;28;20243;-80
2023/10/22 02:20:59;;;;;;;13.70;3.63;;;;;;;21.34;48.98;95021.69;4958192;28;20757;-81
2023/10/22 02:23:24;;;;;;;21.57;3.43;;;;;;;21.29;49.39;95027.00;4948698;28;20259;-81
2023/10/22 02:25:50;;;;;;;11.77;3.20;;;;;;;21.24;49.68;95026.97;4983771;28;20343;-81
2023/10/22 02:28:19;;;;;;;18.40;3.70;;;;;;;21.16;50.41;95018.72;4984260;28;20251;-80
2023/10/22 02:30:47;;;;;;;12.27;3.30;;;;;;;21.15;50.17;95017.09;4971290;28;20246;-81
2023/10/22 02:33:13;;;;;;;13.50;3.17;;;;;;;21.14;50.31;95012.81;4950014;28;20266;-80
2023/10/22 02:35:42;;;;;;;15.83;3.33;;;;;;;20.98;50.77;95016.47;4979694;28;20356;-80
2023/10/22 02:38:08;;;;;;;14.67;3.77;;;;;;;21.04;50.83;95004.81;4970039;28;20338;-81
2023/10/22 02:40:35;;;;;;;11.73;3.23;;;;;;;21.16;49.71;95008.06;4967413;28;20231;-80
2023/10/22 02:43:01;;;;;;;14.83;3.40;;;;;;;21.00;50.37;95003.72;4960104;28;20246;-79
2023/10/22 02:45:27;;;;;;;13.17;3.30;;;;;;;21.07;50.76;95012.28;4961706;28;20235;-81
2023/10/22 02:47:52;;;;;;;14.43;3.07;;;;;;;20.81;51.40;95019.34;4990961;28;20350;-80
2023/10/22 02:50:18;;;;;;;16.30;3.50;;;;;;;20.80;51.72;95020.44;4984166;28;20325;-80
2023/10/22 02:52:43;;;;;;;12.30;3.20;;;;;;;20.71;52.34;95019.31;4966402;28;20261;-80
2023/10/22 02:55:09;;;;;;;18.33;3.30;;;;;;;20.59;53.15;95021.38;4971928;28;20224;-80
2023/10/22 02:57:34;;;;;;;16.87;3.37;;;;;;;20.56;53.14;95020.03;5003956;28;20882;-80
2023/10/22 03:00:00;;;;;;;18.17;3.37;;;;;;;20.42;53.71;95015.47;4986004;28;20228;-81
2023/10/22 03:02:26;;;;;;;13.33;3.40;;;;;;;20.22;53.93;95017.97;5023226;28;20231;-80
2023/10/22 03:04:51;;;;;;;14.50;3.37;;;;;;;20.16;54.89;95022.44;4996649;28;20727;-79
2023/10/22 03:07:17;;;;;;;18.00;3.50;;;;;;;20.18;54.57;95020.31;4948780;28;20231;-79
2023/10/22 03:09:42;;;;;;;15.57;3.10;;;;;;;20.08;55.87;95026.38;5000959;28;21252;-81
2023/10/22 03:12:08;;;;;;;13.33;3.60;;;;;;;19.99;55.49;95035.09;4983203;28;20243;-81
2023/10/22 03:14:33;;;;;;;16.07;3.30;;;;;;;19.96;55.92;95023.13;4964814;28;20234;-80
2023/10/22 03:16:59;;;;;;;11.50;3.10;;;;;;;19.83;55.48;95010.25;4983167;28;20235;-79
2023/10/22 03:19:24;;;;;;;11.67;3.27;;;;;;;19.87;56.75;95007.91;4986057;28;20591;-79
2023/10/22 03:21:50;;;;;;;15.43;3.37;;;;;;;19.82;56.32;95000.66;4994558;28;20284;-81
2023/10/22 03:24:17;;;;;;;14.57;3.40;;;;;;;19.65;57.01;95005.34;5018548;28;20239;-80
2023/10/22 03:26:43;;;;;;;14.97;3.67;;;;;;;19.64;56.64;94993.09;4981859;28;20243;-80
2023/10/22 03:29:08;;;;;;;19.17;3.60;;;;;;;19.60;57.55;95007.94;4979786;28;20318;-80
2023/10/22 03:31:34;;;;;;;12.47;3.40;;;;;;;19.44;57.83;94999.03;4966530;28;20263;-79
2023/10/22 03:34:00;;;;;;;16.10;3.57;;;;;;;19.39;58.06;94987.59;4966923;28;20223;-79
2023/10/22 03:36:25;;;;;;;15.17;3.50;;;;;;;19.43;58.37;94991.34;4973914;28;20655;-78
2023/10/22 03:38:51;;;;;;;13.87;3.30;;;;;;;19.42;58.41;94989.72;4988513;28;20228;-81
2023/10/22 03:41:17;;;;;;;18.87;4.00;;;;;;;19.52;57.63;94979.19;4982562;28;20269;-81
2023/10/22 03:43:43;;;;;;;15.33;3.90;;;;;;;19.45;57.29;94991.88;4975966;28;20233;-80
2023/10/22 03:46:09;;;;;;;16.77;3.90;;;;;;;19.38;58.04;94988.63;4987599;28;20231;-80
2023/10/22 03:48:35;;;;;;;19.57;4.20;;;;;;;19.19;57.94;94979.41;4988359;28;20633;-81
2023/10/22 03:51:00;;;;;;;14.80;3.30;;;;;;;19.33;56.98;94975.28;4933187;28;20262;-81
2023/10/22 03:53:26;;;;;;;17.73;3.70;;;;;;;19.26;58.60;94993.25;4958725;28;20231;-80
2023/10/22 03:55:51;;;;;;;10.90;3.80;;;;;;;19.34;57.50;95009.56;4989700;28;20219;-78
2023/10/22 03:58:17;;;;;;;17.13;3.93;;;;;;;19.35;57.04;95010.34;4976662;28;20239;-80
2023/10/22 04:00:43;;;;;;;15.97;3.90;;;;;;;19.45;56.14;95018.44;4998658;28;20231;-80
2023/10/22 04:03:08;;;;;;;14.47;3.50;;;;;;;19.49;55.15;95009.72;5023418;28;20224;-80
2023/10/22 04:05:34;;;;;;;11.67;3.70;;;;;;;19.21;57.18;94988.72;4988592;28;20676;-80
2023/10/22 04:07:59;;;;;;;12.17;3.90;;;;;;;19.16;57.77;94990.50;4999389;28;20231;-79
2023/10/22 04:10:25;;;;;;;13.40;3.50;;;;;;;19.18;57.82;95002.47;4972189;28;20239;-79
2023/10/22 04:12:50;;;;;;;21.60;3.97;;;;;;;19.07;57.26;94998.13;4954340;28;20280;-81
2023/10/22 04:15:16;;;;;;;12.37;3.40;;;;;;;18.97;57.75;94981.28;4953087;28;20235;-81
2023/10/22 04:17:44;;;;;;;16.77;3.80;;;;;;;18.99;57.68;95003.88;4949532;28;20228;-78
2023/10/22 04:20:10;;;;;;;14.30;3.80;;;;;;;19.07;57.05;94998.13;4964935;28;20258;-79
2023/10/22 04:22:36;;;;;;;19.30;4.23;;;;;;;19.12;56.49;94992.06;4986522;28;20238;-78
2023/10/22 04:25:01;;;;;;;18.20;4.23;;;;;;;19.17;56.87;95016.81;4990640;28;20236;-78
2023/10/22 04:27:27;;;;;;;18.43;3.93;;;;;;;19.02;56.81;95021.94;4961337;28;20271;-80
2023/10/22 04:29:52;;;;;;;15.07;4.10;;;;;;;18.99;57.27;95042.84;4958340;28;20289;-79
2023/10/22 04:32:18;;;;;;;18.73;3.87;;;;;;;18.27;59.53;95013.81;4982236;28;20232;-82
2023/10/22 04:34:43;;;;;;;17.27;4.00;;;;;;;18.53;58.93;95037.00;4971990;28;20231;-79
2023/10/22 04:37:10;;;;;;;21.40;4.17;;;;;;;18.59;57.79;95022.78;4986110;28;20290;-81
2023/10/22 04:39:38;;;;;;;15.37;3.97;;;;;;;18.67;57.59;95027.66;4977681;28;20262;-78
2023/10/22 04:42:04;;;;;;;15.43;4.30;;;;;;;18.81;57.53;95062.56;4954971;28;20244;-80
2023/10/22 04:44:29;;;;;;;15.43;4.10;;;;;;;18.88;56.89;95047.25;4964731;28;20699;-80
2023/10/22 04:46:55;;;;;;;17.13;3.73;;;;;;;18.95;57.54;95049.72;4984437;28;20231;-78
2023/10/22 04:49:20;;;;;;;16.80;4.00;;;;;;;19.01;57.26;95059.34;4979377;28;20310;-78
2023/10/22 04:51:46;;;;;;;21.47;3.87;;;;;;;19.00;57.71;95055.09;4987007;28;21158;-79
2023/10/22 04:54:11;;;;;;;17.83;4.10;;;;;;;19.10;56.77;95056.00;4965702;28;20720;-76
2023/10/22 04:56:37;;;;;;;17.53;4.00;;;;;;;18.89;57.96;95056.81;4980612;28;20231;-79
2023/10/22 04:59:04;;;;;;;11.30;3.70;;;;;;;18.87;58.30;95068.75;5013435;28;20234;-78
2023/10/22 05:01:29;;;;;;;21.70;4.23;;;;;;;18.92;58.81;95080.19;4974319;28;21000;-69
2023/10/22 05:03:55;;;;;;;16.67;4.00;;;;;;;18.89;58.76;95093.16;5009323;28;20227;-70
2023/10/22 05:06:21;;;;;;;17.13;3.90;;;;;;;18.91;59.20;95091.88;4964741;28;20237;-71
2023/10/22 05:08:46;;;;;;;20.53;4.17;;;;;;;18.67;59.16;95072.75;4995371;28;21151;-71
2023/10/22 05:11:14;;;;;;;16.03;3.80;;;;;;;18.82;58.93;95086.16;4993314;28;20245;-72
2023/10/22 05:13:40;;;;;;;16.10;4.07;;;;;;;18.82;59.33;95088.81;4991090;28;20314;-70
2023/10/22 05:16:07;;;;;;;20.27;4.10;;;;;;;18.79;59.03;95072.63;4950544;28;20230;-70
2023/10/22 05:18:32;;;;;;;19.90;4.00;;;;;;;18.86;59.19;95088.34;4987666;28;20231;-69
2023/10/22 05:21:05;;;;;;;19.47;4.00;;;;;;;18.78;60.29;95079.75;4966832;28;20512;-68
2023/10/22 05:23:32;;;;;;;20.53;3.77;;;;;;;18.81;60.72;95073.16;4994547;28;20227;-69
2023/10/22 05:26:11;;;;;;;17.90;4.10;;;;;;;18.84;61.08;95080.63;4983517;28;20227;-84
2023/10/22 05:28:37;;;;;;;17.37;4.30;;;;;;;18.83;61.59;95079.84;4949743;28;20234;-84
2023/10/22 05:31:05;;;;;;;15.17;4.33;;;;;;;18.81;62.44;95073.16;4982186;28;20299;-86
2023/10/22 05:33:31;;;;;;;17.73;4.60;;;;;;;18.86;62.17;95059.97;5004781;28;20227;-85
2023/10/22 05:35:56;;;;;;;14.77;4.27;;;;;;;18.91;62.82;95075.94;4996239;28;20250;-83
2023/10/22 05:38:22;;;;;;;17.70;4.67;;;;;;;18.86;63.34;95075.06;4971224;28;20238;-86
2023/10/22 05:40:48;;;;;;;22.60;4.50;;;;;;;18.76;64.42;95073.09;5014541;28;20235;-85
2023/10/22 05:43:13;;;;;;;14.70;4.50;;;;;;;18.81;64.54;95089.09;4996910;28;20230;-82
2023/10/22 05:45:39;;;;;;;16.97;4.50;;;;;;;18.88;64.58;95088.88;5000017;28;21098;-83
2023/10/22 05:48:05;;;;;;;16.33;4.77;;;;;;;18.89;65.47;95088.63;4978950;28;20787;-87
2023/10/22 05:50:40;;;;;;;16.17;4.30;;;;;;;18.82;65.92;95074.75;4986078;28;20321;-88
2023/10/22 05:53:06;;;;;;;18.20;4.90;;;;;;;18.77;65.48;95077.38;4975100;28;20366;-85
2023/10/22 05:55:31;;;;;;;18.60;4.57;;;;;;;18.81;66.06;95103.16;5007579;28;21193;-85
2023/10/22 05:57:56;;;;;;;15.67;4.43;;;;;;;18.93;66.22;95112.84;5005837;28;20960;-82
2023/10/22 06:00:22;;;;;;;18.13;4.70;;;;;;;18.89;67.27;95117.03;5006186;28;20312;-86
2023/10/22 06:02:48;;;;;;;20.10;4.53;;;;;;;18.91;67.39;95115.75;5022420;28;20690;-86
2023/10/22 06:05:13;;;;;;;18.80;4.97;;;;;;;18.90;67.94;95135.34;5020379;28;20238;-85
2023/10/22 06:07:39;;;;;;;16.37;4.90;;;;;;;18.79;68.12;95123.00;5030316;28;20230;-86
2023/10/22 06:10:05;;;;;;;15.27;4.87;;;;;;;18.83;67.92;95122.28;4994845;28;20229;-86
2023/10/22 06:12:30;;;;;;;20.80;5.50;;;;;;;18.84;68.15;95139.78;4991476;28;20230;-86
2023/10/22 06:15:03;;;;;;;26.70;7.17;;;;;;;18.83;68.82;95158.59;4958392;28;20226;-85
2023/10/22 06:17:30;;;;;;;24.20;6.87;;;;;;;18.72;69.29;95133.00;5003406;28;20230;-85
2023/10/22 06:19:56;;;;;;;20.77;7.10;;;;;;;18.59;70.59;95128.03;5016403;28;20231;-85
2023/10/22 06:22:22;;;;;;;20.97;8.73;;;;;;;18.47;71.01;95141.38;5015710;28;20230;-86
2023/10/22 06:24:48;;;;;;;26.90;8.77;;;;;;;18.65;70.43;95191.47;5003869;28;20223;-88
2023/10/22 06:27:13;;;;;;;25.83;7.87;;;;;;;18.72;69.99;95152.31;5008411;28;20253;-88
2023/10/22 06:29:39;;;;;;;23.57;6.90;;;;;;;18.76;69.93;95158.78;5000020;28;20231;-86
2023/10/22 06:32:05;;;;;;;26.57;9.07;;;;;;;18.91;69.37;95162.69;4986279;28;20277;-88
2023/10/22 06:34:30;;;;;;;27.63;9.60;;;;;;;18.93;69.50;95185.25;4995568;28;20227;-85
2023/10/22 06:36:56;;;;;;;21.53;9.27;;;;;;;18.91;69.58;95183.91;4994375;28;20231;-88
2023/10/22 06:39:21;;;;;;;29.03;9.90;;;;;;;18.92;69.89;95174.88;5006722;28;20261;-86
2023/10/22 06:41:47;;;;;;;25.87;10.40;;;;;;;18.85;70.06;95164.44;4985247;28;20222;-88
2023/10/22 06:44:13;;;;;;;30.33;10.40;;;;;;;18.96;69.46;95171.53;5003209;28;20628;-85
2023/10/22 06:46:38;;;;;;;26.70;10.50;;;;;;;18.98;69.69;95168.59;4988549;28;20283;-85
2023/10/22 06:49:04;;;;;;;27.47;10.97;;;;;;;18.98;70.53;95173.91;5011727;28;20226;-85
2023/10/22 06:51:29;;;;;;;26.23;10.70;;;;;;;19.04;70.03;95175.56;5018119;28;21092;-86
2023/10/22 06:53:55;;;;;;;24.20;10.47;;;;;;;19.16;70.14;95174.41;4992113;28;20227;-86
2023/10/22 06:56:20;;;;;;;30.00;11.63;;;;;;;19.15;69.75;95174.69;4990067;28;20873;-86
2023/10/22 06:58:46;;;;;;;28.87;11.13;;;;;;;19.13;70.23;95174.91;4969455;28;20736;-86
2023/10/22 07:01:12;;;;;;;30.40;11.50;;;;;;;19.27;69.22;95172.72;4995368;28;20230;-85
2023/10/22 07:03:42;;;;;;;29.83;11.47;;;;;;;19.19;70.25;95176.59;4998940;28;20239;-84
2023/10/22 07:06:07;;;;;;;30.67;11.07;;;;;;;19.26;69.75;95161.28;4990736;28;20234;-85
2023/10/22 07:08:33;;;;;;;34.50;10.43;;;;;;;19.34;68.70;95162.72;5001879;28;20791;-84
2023/10/22 07:10:59;;;;;;;25.30;8.60;;;;;;;19.47;67.74;95186.25;5016553;28;20252;-81
2023/10/22 07:13:24;;;;;;;21.97;8.43;;;;;;;19.50;68.38;95177.78;5002995;28;20716;-84
2023/10/22 07:15:51;;;;;;;22.03;7.27;;;;;;;19.54;68.00;95176.22;5003261;28;20288;-83
2023/10/22 07:18:16;;;;;;;20.80;7.13;;;;;;;19.53;67.60;95174.66;4990563;28;20238;-83
2023/10/22 07:20:42;;;;;;;22.50;7.33;;;;;;;19.66;67.25;95182.22;4970696;28;20219;-84
2023/10/22 07:23:07;;;;;;;19.57;6.40;;;;;;;19.72;66.68;95172.44;4986855;28;20237;-84
2023/10/22 07:25:33;;;;;;;22.77;6.53;;;;;;;19.77;66.28;95168.00;5014231;28;20230;-83
2023/10/22 07:27:59;;;;;;;23.80;6.10;;;;;;;19.85;66.02;95169.38;4985662;28;20316;-69
2023/10/22 07:30:25;;;;;;;20.80;5.87;;;;;;;19.77;66.06;95178.63;4951343;28;20239;-67
2023/10/22 07:32:51;;;;;;;13.30;5.30;;;;;;;19.90;66.17;95172.09;4968580;28;20650;-69
2023/10/22 07:35:18;;;;;;;19.50;5.80;;;;;;;19.92;67.19;95164.66;4999692;28;20238;-69
2023/10/22 07:37:44;;;;;;;13.23;5.30;;;;;;;19.97;66.20;95159.41;5010822;28;20710;-69
2023/10/22 07:40:13;;;;;;;22.30;5.87;;;;;;;20.06;66.18;95166.66;4980780;28;20234;-70
2023/10/22 07:42:40;;;;;;;17.63;5.97;;;;;;;20.01;65.27;95166.63;5012040;28;20254;-70
2023/10/22 07:45:06;;;;;;;20.50;6.03;;;;;;;20.18;65.77;95156.69;5014882;28;20231;-70
2023/10/22 07:47:32;;;;;;;21.60;5.83;;;;;;;20.27;64.48;95166.88;5003651;28;20758;-69
2023/10/22 07:49:57;;;;;;;15.00;5.53;;;;;;;20.36;64.58;95176.00;4989399;28;20230;-70
2023/10/22 07:52:23;;;;;;;23.23;5.90;;;;;;;20.40;65.37;95147.84;5009040;28;20246;-70
2023/10/22 07:54:52;;;;;;;17.20;6.07;;;;;;;20.36;65.40;95144.09;4953559;28;20227;-69
2023/10/22 07:57:18;;;;;;;17.20;5.77;;;;;;;20.45;63.64;95159.31;5026832;28;20290;-70
2023/10/22 07:59:43;;;;;;;28.57;6.63;;;;;;;20.49;64.52;95159.63;5016565;28;20303;-69
2023/10/22 08:02:10;;;;;;;20.43;6.00;;;;;;;20.49;64.65;95155.09;4951468;28;20699;-69
2023/10/22 08:04:37;;;;;;;22.53;6.80;;;;;;;20.51;64.64;95149.53;5006781;28;20250;-69
2023/10/22 08:07:04;;;;;;;18.67;6.57;;;;;;;20.57;64.42;95153.81;4980286;28;20249;-70
2023/10/22 08:09:29;;;;;;;23.53;6.13;;;;;;;20.65;63.21;95161.34;5013040;28;20234;-69
2023/10/22 08:11:55;;;;;;;17.27;6.30;;;;;;;20.65;64.07;95122.25;4993568;28;20226;-69
2023/10/22 08:14:21;;;;;;;15.43;6.40;;;;;;;20.88;63.97;95129.00;5000617;28;20228;-69
2023/10/22 08:16:46;;;;;;;22.87;6.17;;;;;;;21.03;63.40;95137.09;4975416;28;20279;-68
2023/10/22 08:19:12;;;;;;;26.63;7.23;;;;;;;21.18;63.25;95134.53;4967035;28;20257;-70
2023/10/22 08:21:37;;;;;;;23.43;7.33;;;;;;;21.30;61.44;95119.09;5015665;28;20726;-68
2023/10/22 08:24:03;;;;;;;19.87;6.57;;;;;;;21.31;61.58;95134.03;5020192;28;20237;-70
2023/10/22 08:26:29;;;;;;;18.47;6.20;;;;;;;21.38;61.30;95131.13;4983996;28;20237;-69
2023/10/22 08:28:54;;;;;;;22.90;6.37;;;;;;;21.42;62.09;95133.00;4996512;28;20227;-70
2023/10/22 08:31:20;;;;;;;22.17;6.73;;;;;;;21.49;61.11;95136.22;5000232;28;20355;-69
2023/10/22 08:33:45;;;;;;;19.77;6.43;;;;;;;21.47;61.66;95134.88;4971229;28;20230;-69
2023/10/22 08:36:11;;;;;;;23.73;7.20;;;;;;;21.51;60.34;95106.69;4995353;28;20240;-69
2023/10/22 08:38:37;;;;;;;19.07;6.50;;;;;;;21.48;60.97;95126.66;4986614;28;20664;-70
2023/10/22 08:41:04;;;;;;;22.80;6.40;;;;;;;21.49;61.55;95133.56;5011517;28;20242;-69
2023/10/22 08:43:32;;;;;;;25.17;6.60;;;;;;;21.60;59.94;95123.75;5009299;28;20255;-69
2023/10/22 08:45:57;;;;;;;25.53;7.27;;;;;;;21.68;60.07;95133.09;4980932;28;20230;-68
2023/10/22 08:48:23;;;;;;;20.17;7.00;;;;;;;21.70;60.31;95122.97;5018158;28;20238;-70
2023/10/22 08:50:49;;;;;;;25.27;7.40;;;;;;;21.87;58.68;95118.22;5001172;28;20237;-70
2023/10/22 08:53:14;;;;;;;29.77;7.60;;;;;;;21.95;57.98;95113.16;4966692;28;20231;-70
2023/10/22 08:55:44;;;;;;;21.57;7.33;;;;;;;22.15;57.34;95109.72;4969393;28;20230;-68
2023/10/22 08:58:09;;;;;;;16.37;6.63;;;;;;;22.22;56.30;95107.59;4994968;28;20243;-69
2023/10/22 09:00:35;;;;;;;22.23;5.90;;;;;;;22.35;55.10;95108.91;5000062;28;20235;-69
2023/10/22 09:03:00;;;;;;;22.07;6.47;;;;;;;22.36;55.13;95100.63;4983628;28;20235;-69
2023/10/22 09:05:25;;;;;;;25.83;6.70;;;;;;;22.24;56.62;95101.97;4972296;28;20232;-69
2023/10/22 09:07:55;;;;;;;21.13;5.90;;;;;;;22.35;54.09;95099.06;4987235;28;20253;-69
2023/10/22 09:10:29;;;;;;;19.60;5.93;;;;;;;22.44;54.99;95100.09;4987633;28;20276;-69
2023/10/22 09:13:06;;;;;;;20.95;5.80;;;;;;;22.47;53.41;95107.59;4982126;28;20238;-70
2023/10/22 09:15:36;;;;;;;19.40;5.63;;;;;;;22.47;54.61;95110.25;4968329;28;20283;-69
2023/10/22 09:18:02;;;;;;;18.73;6.00;;;;;;;22.50;53.78;95101.69;5001659;28;20238;-70
2023/10/22 09:20:29;;;;;;;20.10;5.88;;;;;;;22.62;52.41;95104.91;4991468;28;20227;-69
2023/10/22 09:23:19;;;;;;;20.60;5.22;;;;;;;22.84;50.97;95103.78;4991556;28;20230;-69
2023/10/22 09:25:52;;;;;;;25.30;6.13;;;;;;;22.86;53.45;95105.13;5008227;28;20246;-69
2023/10/22 09:28:25;;;;;;;21.00;7.43;;;;;;;22.88;54.05;95105.63;4965091;28;20238;-71
2023/10/22 09:31:00;;;;;;;21.40;6.68;;;;;;;22.98;53.04;95094.94;5003994;28;20237;-69
2023/10/22 09:33:44;;;;;;;28.13;6.60;;;;;;;23.12;53.00;95101.28;5010037;28;20231;-69
2023/10/22 09:36:12;;;;;;;23.45;6.50;;;;;;;23.16;52.21;95098.88;4973599;28;20222;-70
2023/10/22 09:38:48;;;;;;;21.65;6.82;;;;;;;23.19;52.82;95087.66;4985865;28;20231;-70
2023/10/22 09:41:25;;;;;;;17.65;4.78;;;;;;;23.24;48.90;95088.44;4991314;28;20240;-69
2023/10/22 09:43:52;;;;;;;21.63;5.13;;;;;;;23.32;48.32;95084.38;5012692;28;20239;-69
2023/10/22 09:46:21;;;;;;;21.90;4.87;;;;;;;23.54;47.16;95079.50;4977482;28;20227;-70
2023/10/22 09:48:59;;;;;;;29.42;4.43;;;;;;;23.58;47.74;95077.06;4968889;28;20815;-69
2023/10/22 09:51:34;;;;;;;21.42;4.55;;;;;;;23.58;48.35;95075.19;5018492;28;20235;-69
2023/10/22 09:54:02;;;;;;;28.88;4.88;;;;;;;23.77;44.60;95060.09;4983284;28;20241;-69
2023/10/22 09:56:28;;;;;;;36.78;5.22;;;;;;;23.93;43.77;95058.91;4964415;28;20253;-69
2023/10/22 09:58:56;;;;;;;28.33;5.35;;;;;;;24.12;43.66;95069.78;4986552;28;20687;-68
2023/10/22 10:01:22;;;;;;;32.33;5.20;;;;;;;24.24;43.51;95050.69;4995407;28;20239;-69
2023/10/22 10:03:48;;;;;;;26.90;4.75;;;;;;;24.25;42.52;95055.72;5011732;28;20245;-70
2023/10/22 10:06:14;;;;;;;27.63;5.00;;;;;;;24.20;44.07;95053.09;4990479;28;20262;-70
2023/10/22 10:08:40;;;;;;;29.70;5.10;;;;;;;24.38;43.21;95040.91;4993917;28;20225;-69
2023/10/22 10:11:10;;;;;;;36.60;5.68;;;;;;;24.36;43.61;95051.09;4977785;28;20254;-68
2023/10/22 10:13:35;;;;;;;28.67;5.10;;;;;;;24.45;43.81;95052.88;4992537;28;20239;-69
2023/10/22 10:16:05;;;;;;;31.40;5.22;;;;;;;24.74;42.12;95039.47;4988934;28;20317;-68
2023/10/22 10:18:58;;;;;;;23.13;4.28;;;;;;;24.72;41.87;95052.31;5013645;28;20285;-70
2023/10/22 10:21:47;;;;;;;26.80;4.32;;;;;;;24.72;42.37;95061.16;4998131;28;20231;-69
2023/10/22 10:24:16;;;;;;;25.85;4.50;;;;;;;24.78;41.66;95037.84;5000479;28;20245;-70
2023/10/22 10:26:42;;;;;;;31.63;4.57;;;;;;;24.72;42.06;95036.25;4992174;28;20235;-70
2023/10/22 10:29:08;;;;;;;22.05;4.80;;;;;;;24.72;42.56;95063.03;4998976;28;20241;-71
2023/10/22 10:31:34;;;;;;;26.77;4.63;;;;;;;24.52;42.85;95028.47;4992689;28;20261;-67
2023/10/22 10:34:01;;;;;;;30.33;5.35;;;;;;;24.49;43.10;95018.31;5031713;28;20738;-68
2023/10/22 10:36:26;;;;;;;24.02;4.63;;;;;;;24.67;42.94;95018.38;4981723;28;20295;-69
2023/10/22 10:38:52;;;;;;;20.85;4.82;;;;;;;24.77;42.90;95006.00;4990923;28;20227;-69
2023/10/22 10:41:51;;;;;;;22.48;5.10;;;;;;;24.81;41.75;95004.34;5004129;28;20269;-69
2023/10/22 10:44:17;;;;;;;27.50;4.70;;;;;;;24.99;41.88;95009.72;4968767;28;20267;-70
2023/10/22 10:46:42;;;;;;;28.38;4.78;;;;;;;25.14;41.65;95011.41;4987193;28;20248;-69
2023/10/22 10:49:08;;;;;;;28.05;4.70;;;;;;;25.05;42.63;95019.31;5018026;28;20323;-70
2023/10/22 10:51:34;;;;;;;23.25;4.80;;;;;;;24.83;42.61;95027.06;5014126;28;20230;-68
2023/10/22 10:54:12;;;;;;;33.28;4.72;;;;;;;24.91;42.16;95020.28;5016055;28;20230;-70
2023/10/22 10:56:50;;;;;;;25.10;4.63;;;;;;;25.05;41.99;95015.84;5002967;28;20268;-69
2023/10/22 10:59:35;;;;;;;27.20;5.30;;;;;;;25.15;42.04;95010.34;5000818;28;20302;-68
2023/10/22 11:02:08;;;;;;;27.35;4.63;;;;;;;25.17;42.22;95016.97;4983805;28;20241;-69
2023/10/22 11:04:35;;;;;;;25.17;4.75;;;;;;;25.19;42.31;95019.41;5000790;28;20292;-69
2023/10/22 11:07:00;;;;;;;22.48;4.47;;;;;;;25.38;41.61;95017.53;4968509;28;20336;-70
2023/10/22 11:09:26;;;;;;;26.05;5.00;;;;;;;25.28;41.88;95002.38;4966379;28;20345;-70
2023/10/22 11:11:59;;;;;;;28.98;5.07;;;;;;;25.24;41.92;95013.97;5007861;28;20228;-68
2023/10/22 11:14:25;;;;;;;26.67;4.63;;;;;;;25.40;41.86;95013.47;4964541;28;20297;-69
2023/10/22 11:16:53;;;;;;;31.88;4.78;;;;;;;25.47;42.10;95006.97;4999688;28;20318;-70
2023/10/22 11:19:22;;;;;;;31.88;5.30;;;;;;;25.40;42.61;95002.75;4983726;28;20246;-70
2023/10/22 11:21:48;;;;;;;29.50;4.63;;;;;;;25.32;42.18;95005.28;4976387;28;20616;-69
2023/10/22 11:24:14;;;;;;;31.08;4.85;;;;;;;25.47;42.17;95015.00;4985906;28;20234;-70